sensor_id;sensor_type;location;lat;lon;timestamp;temperature;humidity
7000;DHT22;3540;53.242;10.408;2022-07-26T00:01:57;16.90;99.90
7000;DHT22;3540;53.242;10.408;2022-07-26T00:04:23;16.90;99.90
7000;DHT22;3540;53.242;10.408;2022-07-26T00:06:49;16.90;99.90
7000;DHT22;3540;53.242;10.408;2022-07-26T00:09:15;16.90;99.90
7000;DHT22;3540;53.242;10.408;2022-07-26T00:11:41;16.90;99.90
7000;DHT22;3540;53.242;10.408;2022-07-26T00:14:07;16.80;99.90
7000;DHT22;3540;53.242;10.408;2022-07-26T00:16:33;16.90;99.90
7000;DHT22;3540;53.242;10.408;2022-07-26T00:18:59;16.80;99.90
7000;DHT22;3540;53.242;10.408;2022-07-26T00:21:24;16.80;99.90
7000;DHT22;3540;53.242;10.408;2022-07-26T00:23:50;16.80;99.90
7000;DHT22;3540;53.242;10.408;2022-07-26T00:26:16;16.80;99.90
7000;DHT22;3540;53.242;10.408;2022-07-26T00:28:42;16.80;99.90
7000;DHT22;3540;53.242;10.408;2022-07-26T00:31:08;16.80;99.90
7000;DHT22;3540;53.242;10.408;2022-07-26T00:33:34;16.80;99.90
7000;DHT22;3540;53.242;10.408;2022-07-26T00:35:59;16.80;99.90
7000;DHT22;3540;53.242;10.408;2022-07-26T00:38:25;16.80;99.90
7000;DHT22;3540;53.242;10.408;2022-07-26T00:40:51;16.80;99.90
7000;DHT22;3540;53.242;10.408;2022-07-26T00:43:17;16.80;99.90
7000;DHT22;3540;53.242;10.408;2022-07-26T00:45:42;16.80;99.90
7000;DHT22;3540;53.242;10.408;2022-07-26T00:48:08;16.80;99.90
7000;DHT22;3540;53.242;10.408;2022-07-26T00:50:34;16.80;99.90
7000;DHT22;3540;53.242;10.408;2022-07-26T00:53:00;16.70;99.90
7000;DHT22;3540;53.242;10.408;2022-07-26T00:55:26;16.70;99.90
7000;DHT22;3540;53.242;10.408;2022-07-26T00:57:52;16.60;99.90
7000;DHT22;3540;53.242;10.408;2022-07-26T01:00:21;16.60;99.90
7000;DHT22;3540;53.242;10.408;2022-07-26T01:02:48;16.60;99.90
7000;DHT22;3540;53.242;10.408;2022-07-26T01:05:14;16.70;99.90
7000;DHT22;3540;53.242;10.408;2022-07-26T01:07:41;16.70;99.90
7000;DHT22;3540;53.242;10.408;2022-07-26T01:10:10;16.70;99.90
7000;DHT22;3540;53.242;10.408;2022-07-26T01:12:38;16.80;99.90
7000;DHT22;3540;53.242;10.408;2022-07-26T01:15:04;16.80;99.90
7000;DHT22;3540;53.242;10.408;2022-07-26T01:17:30;16.80;99.90
7000;DHT22;3540;53.242;10.408;2022-07-26T01:19:56;16.80;99.90
7000;DHT22;3540;53.242;10.408;2022-07-26T01:22:21;16.80;99.90
7000;DHT22;3540;53.242;10.408;2022-07-26T01:24:47;16.80;99.90
7000;DHT22;3540;53.242;10.408;2022-07-26T01:27:12;16.80;99.90
7000;DHT22;3540;53.242;10.408;2022-07-26T01:29:38;16.80;99.90
7000;DHT22;3540;53.242;10.408;2022-07-26T01:32:04;16.90;99.90
7000;DHT22;3540;53.242;10.408;2022-07-26T01:34:30;16.80;99.90
7000;DHT22;3540;53.242;10.408;2022-07-26T01:36:56;16.80;99.90
7000;DHT22;3540;53.242;10.408;2022-07-26T01:39:22;16.80;99.90
7000;DHT22;3540;53.242;10.408;2022-07-26T01:41:48;16.80;99.90
7000;DHT22;3540;53.242;10.408;2022-07-26T01:44:14;16.80;99.90
7000;DHT22;3540;53.242;10.408;2022-07-26T01:46:39;16.80;99.90
7000;DHT22;3540;53.242;10.408;2022-07-26T01:49:05;16.80;99.90
7000;DHT22;3540;53.242;10.408;2022-07-26T01:51:32;16.80;99.90
7000;DHT22;3540;53.242;10.408;2022-07-26T01:54:00;16.80;99.90
7000;DHT22;3540;53.242;10.408;2022-07-26T01:56:25;16.80;99.90
7000;DHT22;3540;53.242;10.408;2022-07-26T01:58:51;16.80;99.90
7000;DHT22;3540;53.242;10.408;2022-07-26T02:01:17;16.70;99.90
7000;DHT22;3540;53.242;10.408;2022-07-26T02:03:42;16.70;99.90
7000;DHT22;3540;53.242;10.408;2022-07-26T02:06:08;16.70;99.90
7000;DHT22;3540;53.242;10.408;2022-07-26T02:08:34;16.60;99.90
7000;DHT22;3540;53.242;10.408;2022-07-26T02:10:59;16.60;99.90
7000;DHT22;3540;53.242;10.408;2022-07-26T02:13:27;16.60;99.90
7000;DHT22;3540;53.242;10.408;2022-07-26T02:15:52;16.60;99.90
7000;DHT22;3540;53.242;10.408;2022-07-26T02:18:18;16.60;99.90
7000;DHT22;3540;53.242;10.408;2022-07-26T02:20:44;16.60;99.90
7000;DHT22;3540;53.242;10.408;2022-07-26T02:23:09;16.60;99.90
7000;DHT22;3540;53.242;10.408;2022-07-26T02:25:35;16.60;99.90
7000;DHT22;3540;53.242;10.408;2022-07-26T02:28:01;16.60;99.90
7000;DHT22;3540;53.242;10.408;2022-07-26T02:30:27;16.60;99.90
7000;DHT22;3540;53.242;10.408;2022-07-26T02:32:52;16.60;99.90
7000;DHT22;3540;53.242;10.408;2022-07-26T02:35:21;16.60;99.90
7000;DHT22;3540;53.242;10.408;2022-07-26T02:37:46;16.60;99.90
7000;DHT22;3540;53.242;10.408;2022-07-26T02:40:13;16.50;99.90
7000;DHT22;3540;53.242;10.408;2022-07-26T02:42:38;16.50;99.90
7000;DHT22;3540;53.242;10.408;2022-07-26T02:45:04;16.50;99.90
7000;DHT22;3540;53.242;10.408;2022-07-26T02:47:30;16.50;99.90
7000;DHT22;3540;53.242;10.408;2022-07-26T02:49:57;16.50;99.90
7000;DHT22;3540;53.242;10.408;2022-07-26T02:52:23;16.50;99.90
7000;DHT22;3540;53.242;10.408;2022-07-26T02:54:48;16.40;99.90
7000;DHT22;3540;53.242;10.408;2022-07-26T02:57:14;16.40;99.90
7000;DHT22;3540;53.242;10.408;2022-07-26T02:59:40;16.40;99.90
7000;DHT22;3540;53.242;10.408;2022-07-26T03:02:05;16.50;99.90
7000;DHT22;3540;53.242;10.408;2022-07-26T03:04:31;16.50;99.90
7000;DHT22;3540;53.242;10.408;2022-07-26T03:06:57;16.60;99.90
7000;DHT22;3540;53.242;10.408;2022-07-26T03:09:23;16.60;99.90
7000;DHT22;3540;53.242;10.408;2022-07-26T03:11:49;16.60;99.90
7000;DHT22;3540;53.242;10.408;2022-07-26T03:14:15;16.70;99.90
7000;DHT22;3540;53.242;10.408;2022-07-26T03:16:41;16.70;99.90
7000;DHT22;3540;53.242;10.408;2022-07-26T03:19:06;16.70;99.90
7000;DHT22;3540;53.242;10.408;2022-07-26T03:21:32;16.80;99.90
7000;DHT22;3540;53.242;10.408;2022-07-26T03:23:57;16.90;99.90
7000;DHT22;3540;53.242;10.408;2022-07-26T03:26:23;16.90;99.90
7000;DHT22;3540;53.242;10.408;2022-07-26T03:29:04;16.90;99.90
7000;DHT22;3540;53.242;10.408;2022-07-26T03:31:29;16.90;99.90
7000;DHT22;3540;53.242;10.408;2022-07-26T03:33:55;16.90;99.90
7000;DHT22;3540;53.242;10.408;2022-07-26T03:36:20;16.90;99.90
7000;DHT22;3540;53.242;10.408;2022-07-26T03:38:46;16.90;99.90
7000;DHT22;3540;53.242;10.408;2022-07-26T03:41:11;16.90;99.90
7000;DHT22;3540;53.242;10.408;2022-07-26T03:43:37;16.90;99.90
7000;DHT22;3540;53.242;10.408;2022-07-26T03:46:03;16.90;99.90
7000;DHT22;3540;53.242;10.408;2022-07-26T03:48:29;17.00;99.90
7000;DHT22;3540;53.242;10.408;2022-07-26T03:50:55;17.00;99.90
7000;DHT22;3540;53.242;10.408;2022-07-26T03:53:21;17.10;99.90
7000;DHT22;3540;53.242;10.408;2022-07-26T03:55:46;17.10;99.90
7000;DHT22;3540;53.242;10.408;2022-07-26T03:58:30;17.20;99.90
7000;DHT22;3540;53.242;10.408;2022-07-26T04:00:56;17.20;99.90
7000;DHT22;3540;53.242;10.408;2022-07-26T04:03:22;17.20;99.90
7000;DHT22;3540;53.242;10.408;2022-07-26T04:05:47;17.20;99.90
7000;DHT22;3540;53.242;10.408;2022-07-26T04:08:13;17.20;99.90
7000;DHT22;3540;53.242;10.408;2022-07-26T04:10:38;17.20;99.90
7000;DHT22;3540;53.242;10.408;2022-07-26T04:13:04;17.20;99.90
7000;DHT22;3540;53.242;10.408;2022-07-26T04:15:29;17.20;99.90
7000;DHT22;3540;53.242;10.408;2022-07-26T04:17:55;17.20;99.90
7000;DHT22;3540;53.242;10.408;2022-07-26T04:20:21;17.20;99.90
7000;DHT22;3540;53.242;10.408;2022-07-26T04:22:46;17.30;99.90
7000;DHT22;3540;53.242;10.408;2022-07-26T04:25:12;17.30;99.90
7000;DHT22;3540;53.242;10.408;2022-07-26T04:27:38;17.30;99.90
7000;DHT22;3540;53.242;10.408;2022-07-26T04:30:07;17.30;99.90
7000;DHT22;3540;53.242;10.408;2022-07-26T04:32:33;17.30;99.90
7000;DHT22;3540;53.242;10.408;2022-07-26T04:34:58;17.40;99.90
7000;DHT22;3540;53.242;10.408;2022-07-26T04:37:24;17.40;99.90
7000;DHT22;3540;53.242;10.408;2022-07-26T04:39:49;17.40;99.90
7000;DHT22;3540;53.242;10.408;2022-07-26T04:42:15;17.30;99.90
7000;DHT22;3540;53.242;10.408;2022-07-26T04:44:41;17.40;99.90
7000;DHT22;3540;53.242;10.408;2022-07-26T04:47:06;17.40;99.90
7000;DHT22;3540;53.242;10.408;2022-07-26T04:49:32;17.40;99.90
7000;DHT22;3540;53.242;10.408;2022-07-26T04:51:58;17.40;99.90
7000;DHT22;3540;53.242;10.408;2022-07-26T04:54:24;17.50;99.90
7000;DHT22;3540;53.242;10.408;2022-07-26T04:56:49;17.60;99.90
7000;DHT22;3540;53.242;10.408;2022-07-26T04:59:16;17.60;99.90
7000;DHT22;3540;53.242;10.408;2022-07-26T05:01:44;17.60;99.90
7000;DHT22;3540;53.242;10.408;2022-07-26T05:04:10;17.70;99.90
7000;DHT22;3540;53.242;10.408;2022-07-26T05:06:36;17.70;99.90
7000;DHT22;3540;53.242;10.408;2022-07-26T05:09:02;17.80;99.90
7000;DHT22;3540;53.242;10.408;2022-07-26T05:11:27;17.90;99.90
7000;DHT22;3540;53.242;10.408;2022-07-26T05:13:53;17.90;99.90
7000;DHT22;3540;53.242;10.408;2022-07-26T05:16:19;17.90;99.90
7000;DHT22;3540;53.242;10.408;2022-07-26T05:18:44;18.10;99.90
7000;DHT22;3540;53.242;10.408;2022-07-26T05:21:10;18.20;99.90
7000;DHT22;3540;53.242;10.408;2022-07-26T05:23:36;18.30;99.90
7000;DHT22;3540;53.242;10.408;2022-07-26T05:26:02;18.50;99.90
7000;DHT22;3540;53.242;10.408;2022-07-26T05:28:27;18.50;99.90
7000;DHT22;3540;53.242;10.408;2022-07-26T05:30:53;18.60;99.90
7000;DHT22;3540;53.242;10.408;2022-07-26T05:33:18;18.70;99.90
7000;DHT22;3540;53.242;10.408;2022-07-26T05:35:44;18.80;99.90
7000;DHT22;3540;53.242;10.408;2022-07-26T05:38:10;18.80;99.90
7000;DHT22;3540;53.242;10.408;2022-07-26T05:40:35;18.70;99.90
7000;DHT22;3540;53.242;10.408;2022-07-26T05:43:01;18.70;99.90
7000;DHT22;3540;53.242;10.408;2022-07-26T05:45:27;18.80;99.90
7000;DHT22;3540;53.242;10.408;2022-07-26T05:47:53;18.80;99.90
7000;DHT22;3540;53.242;10.408;2022-07-26T05:50:19;18.80;99.90
7000;DHT22;3540;53.242;10.408;2022-07-26T05:52:44;18.90;99.90
7000;DHT22;3540;53.242;10.408;2022-07-26T05:55:10;18.90;99.90
7000;DHT22;3540;53.242;10.408;2022-07-26T05:57:36;18.80;99.90
7000;DHT22;3540;53.242;10.408;2022-07-26T06:00:09;18.90;99.90
7000;DHT22;3540;53.242;10.408;2022-07-26T06:02:35;19.00;99.90
7000;DHT22;3540;53.242;10.408;2022-07-26T06:05:00;19.00;99.90
7000;DHT22;3540;53.242;10.408;2022-07-26T06:07:26;19.00;99.90
7000;DHT22;3540;53.242;10.408;2022-07-26T06:09:52;19.10;99.90
7000;DHT22;3540;53.242;10.408;2022-07-26T06:12:17;19.10;99.90
7000;DHT22;3540;53.242;10.408;2022-07-26T06:14:43;19.10;99.90
7000;DHT22;3540;53.242;10.408;2022-07-26T06:17:09;19.00;99.90
7000;DHT22;3540;53.242;10.408;2022-07-26T06:19:35;19.10;99.90
7000;DHT22;3540;53.242;10.408;2022-07-26T06:22:00;19.10;99.90
7000;DHT22;3540;53.242;10.408;2022-07-26T06:24:26;19.20;99.90
7000;DHT22;3540;53.242;10.408;2022-07-26T06:26:52;19.20;99.90
7000;DHT22;3540;53.242;10.408;2022-07-26T06:29:20;19.30;99.90
7000;DHT22;3540;53.242;10.408;2022-07-26T06:31:47;19.20;99.90
7000;DHT22;3540;53.242;10.408;2022-07-26T06:34:12;19.20;99.90
7000;DHT22;3540;53.242;10.408;2022-07-26T06:36:38;19.30;99.90
7000;DHT22;3540;53.242;10.408;2022-07-26T06:39:04;19.40;99.90
7000;DHT22;3540;53.242;10.408;2022-07-26T06:41:29;19.60;99.90
7000;DHT22;3540;53.242;10.408;2022-07-26T06:43:55;19.80;99.90
7000;DHT22;3540;53.242;10.408;2022-07-26T06:46:21;19.90;99.90
7000;DHT22;3540;53.242;10.408;2022-07-26T06:48:47;19.70;99.90
7000;DHT22;3540;53.242;10.408;2022-07-26T06:51:13;19.70;99.90
7000;DHT22;3540;53.242;10.408;2022-07-26T06:53:38;19.70;99.90
7000;DHT22;3540;53.242;10.408;2022-07-26T06:56:04;19.90;99.90
7000;DHT22;3540;53.242;10.408;2022-07-26T06:58:30;20.00;99.90
7000;DHT22;3540;53.242;10.408;2022-07-26T07:00:56;19.90;99.90
7000;DHT22;3540;53.242;10.408;2022-07-26T07:03:21;19.90;99.90
7000;DHT22;3540;53.242;10.408;2022-07-26T07:05:47;19.80;99.90
7000;DHT22;3540;53.242;10.408;2022-07-26T07:08:13;19.60;99.90
7000;DHT22;3540;53.242;10.408;2022-07-26T07:10:39;18.90;99.90
7000;DHT22;3540;53.242;10.408;2022-07-26T07:13:05;17.90;99.90
7000;DHT22;3540;53.242;10.408;2022-07-26T07:15:30;17.00;99.90
7000;DHT22;3540;53.242;10.408;2022-07-26T07:17:56;16.60;99.90
7000;DHT22;3540;53.242;10.408;2022-07-26T07:20:22;16.30;99.90
7000;DHT22;3540;53.242;10.408;2022-07-26T07:22:47;16.30;99.90
7000;DHT22;3540;53.242;10.408;2022-07-26T07:25:13;16.20;99.90
7000;DHT22;3540;53.242;10.408;2022-07-26T07:27:39;16.30;99.90
7000;DHT22;3540;53.242;10.408;2022-07-26T07:30:05;16.40;99.90
7000;DHT22;3540;53.242;10.408;2022-07-26T07:32:31;16.50;99.90
7000;DHT22;3540;53.242;10.408;2022-07-26T07:34:56;16.50;99.90
7000;DHT22;3540;53.242;10.408;2022-07-26T07:37:22;16.60;99.90
7000;DHT22;3540;53.242;10.408;2022-07-26T07:39:48;16.80;99.90
7000;DHT22;3540;53.242;10.408;2022-07-26T07:42:13;17.00;99.90
7000;DHT22;3540;53.242;10.408;2022-07-26T07:44:39;17.00;99.90
7000;DHT22;3540;53.242;10.408;2022-07-26T07:47:06;17.20;99.90
7000;DHT22;3540;53.242;10.408;2022-07-26T07:49:33;17.40;99.90
7000;DHT22;3540;53.242;10.408;2022-07-26T07:52:00;17.60;99.90
7000;DHT22;3540;53.242;10.408;2022-07-26T07:54:25;17.80;99.90
7000;DHT22;3540;53.242;10.408;2022-07-26T07:56:51;18.10;99.90
7000;DHT22;3540;53.242;10.408;2022-07-26T07:59:21;18.00;99.90
7000;DHT22;3540;53.242;10.408;2022-07-26T08:01:47;18.00;99.90
7000;DHT22;3540;53.242;10.408;2022-07-26T08:04:12;18.10;99.90
7000;DHT22;3540;53.242;10.408;2022-07-26T08:06:38;18.40;99.90
7000;DHT22;3540;53.242;10.408;2022-07-26T08:09:04;18.70;99.90
7000;DHT22;3540;53.242;10.408;2022-07-26T08:11:30;18.80;99.90
7000;DHT22;3540;53.242;10.408;2022-07-26T08:13:56;18.80;99.90
7000;DHT22;3540;53.242;10.408;2022-07-26T08:16:21;18.90;99.90
7000;DHT22;3540;53.242;10.408;2022-07-26T08:18:47;18.80;99.90
7000;DHT22;3540;53.242;10.408;2022-07-26T08:21:13;18.90;99.90
7000;DHT22;3540;53.242;10.408;2022-07-26T08:23:39;18.90;99.90
7000;DHT22;3540;53.242;10.408;2022-07-26T08:26:04;18.90;99.90
7000;DHT22;3540;53.242;10.408;2022-07-26T08:28:30;18.80;99.90
7000;DHT22;3540;53.242;10.408;2022-07-26T08:30:56;18.80;99.90
7000;DHT22;3540;53.242;10.408;2022-07-26T08:33:21;18.70;99.90
7000;DHT22;3540;53.242;10.408;2022-07-26T08:35:48;18.70;99.90
7000;DHT22;3540;53.242;10.408;2022-07-26T08:38:13;18.90;99.90
7000;DHT22;3540;53.242;10.408;2022-07-26T08:40:39;18.90;99.90
7000;DHT22;3540;53.242;10.408;2022-07-26T08:43:05;18.80;99.90
7000;DHT22;3540;53.242;10.408;2022-07-26T08:45:31;18.60;99.90
7000;DHT22;3540;53.242;10.408;2022-07-26T08:47:57;18.50;99.90
7000;DHT22;3540;53.242;10.408;2022-07-26T08:50:25;18.60;99.90
7000;DHT22;3540;53.242;10.408;2022-07-26T08:52:51;18.80;99.90
7000;DHT22;3540;53.242;10.408;2022-07-26T08:55:19;18.80;99.90
7000;DHT22;3540;53.242;10.408;2022-07-26T08:57:45;18.70;99.90
7000;DHT22;3540;53.242;10.408;2022-07-26T09:00:19;18.30;99.90
7000;DHT22;3540;53.242;10.408;2022-07-26T09:02:46;17.80;99.90
7000;DHT22;3540;53.242;10.408;2022-07-26T09:05:12;17.80;99.90
7000;DHT22;3540;53.242;10.408;2022-07-26T09:07:38;17.70;99.90
7000;DHT22;3540;53.242;10.408;2022-07-26T09:10:12;17.90;99.90
7000;DHT22;3540;53.242;10.408;2022-07-26T09:12:38;18.10;99.90
7000;DHT22;3540;53.242;10.408;2022-07-26T09:15:07;18.40;99.90
7000;DHT22;3540;53.242;10.408;2022-07-26T09:17:44;18.70;99.90
7000;DHT22;3540;53.242;10.408;2022-07-26T09:20:15;18.80;99.90
7000;DHT22;3540;53.242;10.408;2022-07-26T09:25:26;19.10;99.90
7000;DHT22;3540;53.242;10.408;2022-07-26T09:27:52;19.40;99.90
7000;DHT22;3540;53.242;10.408;2022-07-26T09:30:19;19.30;99.90
7000;DHT22;3540;53.242;10.408;2022-07-26T09:33:05;19.00;99.90
7000;DHT22;3540;53.242;10.408;2022-07-26T09:35:32;18.80;99.90
7000;DHT22;3540;53.242;10.408;2022-07-26T09:37:59;18.80;99.90
7000;DHT22;3540;53.242;10.408;2022-07-26T09:40:31;18.60;99.90
7000;DHT22;3540;53.242;10.408;2022-07-26T09:43:03;18.60;99.90
7000;DHT22;3540;53.242;10.408;2022-07-26T09:45:31;18.90;99.90
7000;DHT22;3540;53.242;10.408;2022-07-26T09:47:57;19.20;99.90
7000;DHT22;3540;53.242;10.408;2022-07-26T09:50:27;19.30;99.90
7000;DHT22;3540;53.242;10.408;2022-07-26T09:55:32;19.20;99.90
7000;DHT22;3540;53.242;10.408;2022-07-26T09:57:58;19.40;99.90
7000;DHT22;3540;53.242;10.408;2022-07-26T10:00:31;19.50;99.90
7000;DHT22;3540;53.242;10.408;2022-07-26T10:02:57;19.70;99.90
7000;DHT22;3540;53.242;10.408;2022-07-26T10:05:23;20.00;99.90
7000;DHT22;3540;53.242;10.408;2022-07-26T10:07:49;20.20;99.90
7000;DHT22;3540;53.242;10.408;2022-07-26T10:10:29;20.10;99.90
7000;DHT22;3540;53.242;10.408;2022-07-26T10:12:56;19.80;99.90
7000;DHT22;3540;53.242;10.408;2022-07-26T10:15:36;19.70;99.90
7000;DHT22;3540;53.242;10.408;2022-07-26T10:18:04;19.40;99.90
7000;DHT22;3540;53.242;10.408;2022-07-26T10:20:40;19.20;99.90
7000;DHT22;3540;53.242;10.408;2022-07-26T10:23:38;18.80;99.90
7000;DHT22;3540;53.242;10.408;2022-07-26T10:26:07;18.70;99.90
7000;DHT22;3540;53.242;10.408;2022-07-26T10:28:34;18.60;99.90
7000;DHT22;3540;53.242;10.408;2022-07-26T10:33:47;18.60;99.90
7000;DHT22;3540;53.242;10.408;2022-07-26T10:39:06;18.70;99.90
7000;DHT22;3540;53.242;10.408;2022-07-26T10:41:39;19.30;99.90
7000;DHT22;3540;53.242;10.408;2022-07-26T10:57:28;18.70;99.90
7000;DHT22;3540;53.242;10.408;2022-07-26T10:59:55;18.70;99.90
7000;DHT22;3540;53.242;10.408;2022-07-26T11:02:26;18.90;99.90
7000;DHT22;3540;53.242;10.408;2022-07-26T11:05:05;19.00;99.90
7000;DHT22;3540;53.242;10.408;2022-07-26T11:07:57;19.50;99.90
7000;DHT22;3540;53.242;10.408;2022-07-26T11:10:31;19.90;99.90
7000;DHT22;3540;53.242;10.408;2022-07-26T11:13:03;19.90;99.90
7000;DHT22;3540;53.242;10.408;2022-07-26T11:15:29;20.00;99.90
7000;DHT22;3540;53.242;10.408;2022-07-26T11:18:09;20.40;99.90
7000;DHT22;3540;53.242;10.408;2022-07-26T11:20:35;20.80;99.90
7000;DHT22;3540;53.242;10.408;2022-07-26T11:23:00;20.40;99.90
7000;DHT22;3540;53.242;10.408;2022-07-26T11:25:26;19.90;99.90
7000;DHT22;3540;53.242;10.408;2022-07-26T11:28:04;20.60;99.90
7000;DHT22;3540;53.242;10.408;2022-07-26T11:30:30;21.00;99.90
7000;DHT22;3540;53.242;10.408;2022-07-26T11:32:57;20.10;99.90
7000;DHT22;3540;53.242;10.408;2022-07-26T11:35:25;19.60;99.90
7000;DHT22;3540;53.242;10.408;2022-07-26T11:38:00;19.30;99.90
7000;DHT22;3540;53.242;10.408;2022-07-26T11:40:45;19.10;99.90
7000;DHT22;3540;53.242;10.408;2022-07-26T11:43:11;19.10;99.90
7000;DHT22;3540;53.242;10.408;2022-07-26T11:45:37;19.20;99.90
7000;DHT22;3540;53.242;10.408;2022-07-26T11:48:04;19.30;99.90
7000;DHT22;3540;53.242;10.408;2022-07-26T11:50:30;19.70;99.90
7000;DHT22;3540;53.242;10.408;2022-07-26T11:52:56;20.40;99.90
7000;DHT22;3540;53.242;10.408;2022-07-26T11:55:29;20.60;99.90
7000;DHT22;3540;53.242;10.408;2022-07-26T11:57:55;20.60;99.90
7000;DHT22;3540;53.242;10.408;2022-07-26T12:00:28;21.00;99.90
7000;DHT22;3540;53.242;10.408;2022-07-26T12:02:55;21.10;99.90
7000;DHT22;3540;53.242;10.408;2022-07-26T12:05:21;20.70;99.90
7000;DHT22;3540;53.242;10.408;2022-07-26T12:07:59;20.30;99.90
7000;DHT22;3540;53.242;10.408;2022-07-26T12:10:27;19.70;99.90
7000;DHT22;3540;53.242;10.408;2022-07-26T12:13:13;19.50;99.90
7000;DHT22;3540;53.242;10.408;2022-07-26T12:15:50;19.30;99.90
7000;DHT22;3540;53.242;10.408;2022-07-26T12:18:27;19.20;99.90
7000;DHT22;3540;53.242;10.408;2022-07-26T12:21:10;19.20;99.90
7000;DHT22;3540;53.242;10.408;2022-07-26T12:23:54;19.20;99.90
7000;DHT22;3540;53.242;10.408;2022-07-26T12:26:27;19.40;99.90
7000;DHT22;3540;53.242;10.408;2022-07-26T12:28:55;19.50;99.90
7000;DHT22;3540;53.242;10.408;2022-07-26T12:31:31;19.50;99.90
7000;DHT22;3540;53.242;10.408;2022-07-26T12:33:58;19.50;99.90
7000;DHT22;3540;53.242;10.408;2022-07-26T12:36:25;19.90;99.90
7000;DHT22;3540;53.242;10.408;2022-07-26T12:38:50;19.90;99.90
7000;DHT22;3540;53.242;10.408;2022-07-26T12:41:39;19.90;99.90
7000;DHT22;3540;53.242;10.408;2022-07-26T12:44:06;20.20;99.90
7000;DHT22;3540;53.242;10.408;2022-07-26T12:46:33;20.40;99.90
7000;DHT22;3540;53.242;10.408;2022-07-26T12:48:59;20.70;99.90
7000;DHT22;3540;53.242;10.408;2022-07-26T12:51:24;20.80;99.90
7000;DHT22;3540;53.242;10.408;2022-07-26T12:53:50;20.50;99.90
7000;DHT22;3540;53.242;10.408;2022-07-26T12:56:16;20.20;99.90
7000;DHT22;3540;53.242;10.408;2022-07-26T12:58:41;19.90;99.90
7000;DHT22;3540;53.242;10.408;2022-07-26T13:01:07;19.90;99.90
7000;DHT22;3540;53.242;10.408;2022-07-26T13:03:33;20.10;99.90
7000;DHT22;3540;53.242;10.408;2022-07-26T13:05:58;20.30;99.90
7000;DHT22;3540;53.242;10.408;2022-07-26T13:08:24;20.60;99.90
7000;DHT22;3540;53.242;10.408;2022-07-26T13:10:49;20.40;99.90
7000;DHT22;3540;53.242;10.408;2022-07-26T13:13:15;20.50;99.90
7000;DHT22;3540;53.242;10.408;2022-07-26T13:15:41;20.30;99.90
7000;DHT22;3540;53.242;10.408;2022-07-26T13:18:07;20.50;99.90
7000;DHT22;3540;53.242;10.408;2022-07-26T13:20:35;20.60;99.90
7000;DHT22;3540;53.242;10.408;2022-07-26T13:23:00;21.30;99.90
7000;DHT22;3540;53.242;10.408;2022-07-26T13:25:27;21.00;99.90
7000;DHT22;3540;53.242;10.408;2022-07-26T13:27:52;21.00;99.90
7000;DHT22;3540;53.242;10.408;2022-07-26T13:30:18;20.90;99.90
7000;DHT22;3540;53.242;10.408;2022-07-26T13:32:44;21.00;99.90
7000;DHT22;3540;53.242;10.408;2022-07-26T13:35:09;21.10;99.90
7000;DHT22;3540;53.242;10.408;2022-07-26T13:37:35;21.10;99.90
7000;DHT22;3540;53.242;10.408;2022-07-26T13:40:03;21.70;99.90
7000;DHT22;3540;53.242;10.408;2022-07-26T13:42:28;22.50;99.90
7000;DHT22;3540;53.242;10.408;2022-07-26T13:44:54;22.00;99.90
7000;DHT22;3540;53.242;10.408;2022-07-26T13:47:20;22.00;99.90
7000;DHT22;3540;53.242;10.408;2022-07-26T13:49:45;21.90;99.90
7000;DHT22;3540;53.242;10.408;2022-07-26T13:52:11;21.50;99.90
7000;DHT22;3540;53.242;10.408;2022-07-26T13:54:37;21.50;99.90
7000;DHT22;3540;53.242;10.408;2022-07-26T13:57:03;21.00;99.90
7000;DHT22;3540;53.242;10.408;2022-07-26T13:59:29;21.00;99.90
7000;DHT22;3540;53.242;10.408;2022-07-26T14:01:55;20.80;99.90
7000;DHT22;3540;53.242;10.408;2022-07-26T14:04:22;21.20;99.90
7000;DHT22;3540;53.242;10.408;2022-07-26T14:06:48;20.70;99.90
7000;DHT22;3540;53.242;10.408;2022-07-26T14:09:14;20.80;99.90
7000;DHT22;3540;53.242;10.408;2022-07-26T14:11:40;21.10;99.90
7000;DHT22;3540;53.242;10.408;2022-07-26T14:14:06;21.10;99.90
7000;DHT22;3540;53.242;10.408;2022-07-26T14:16:32;21.00;99.90
7000;DHT22;3540;53.242;10.408;2022-07-26T14:18:59;21.10;99.90
7000;DHT22;3540;53.242;10.408;2022-07-26T14:21:28;21.00;99.90
7000;DHT22;3540;53.242;10.408;2022-07-26T14:23:55;21.20;99.90
7000;DHT22;3540;53.242;10.408;2022-07-26T14:26:22;21.50;99.90
7000;DHT22;3540;53.242;10.408;2022-07-26T14:28:47;21.20;99.90
7000;DHT22;3540;53.242;10.408;2022-07-26T14:31:13;21.40;99.90
7000;DHT22;3540;53.242;10.408;2022-07-26T14:33:39;21.50;99.90
7000;DHT22;3540;53.242;10.408;2022-07-26T14:36:05;21.60;99.90
7000;DHT22;3540;53.242;10.408;2022-07-26T14:38:31;21.80;99.90
7000;DHT22;3540;53.242;10.408;2022-07-26T14:40:57;21.90;99.90
7000;DHT22;3540;53.242;10.408;2022-07-26T14:43:23;22.20;99.90
7000;DHT22;3540;53.242;10.408;2022-07-26T14:45:49;22.10;99.90
7000;DHT22;3540;53.242;10.408;2022-07-26T14:48:15;21.40;99.90
7000;DHT22;3540;53.242;10.408;2022-07-26T14:50:42;21.30;99.90
7000;DHT22;3540;53.242;10.408;2022-07-26T14:53:10;21.00;99.90
7000;DHT22;3540;53.242;10.408;2022-07-26T14:55:36;21.30;99.90
7000;DHT22;3540;53.242;10.408;2022-07-26T14:58:01;21.40;99.90
7000;DHT22;3540;53.242;10.408;2022-07-26T15:00:27;21.40;99.90
7000;DHT22;3540;53.242;10.408;2022-07-26T15:02:53;21.40;99.90
7000;DHT22;3540;53.242;10.408;2022-07-26T15:05:18;21.70;99.90
7000;DHT22;3540;53.242;10.408;2022-07-26T15:07:44;21.10;99.90
7000;DHT22;3540;53.242;10.408;2022-07-26T15:10:12;20.90;99.90
7000;DHT22;3540;53.242;10.408;2022-07-26T15:12:38;20.80;99.90
7000;DHT22;3540;53.242;10.408;2022-07-26T15:15:05;20.70;99.90
7000;DHT22;3540;53.242;10.408;2022-07-26T15:17:30;20.40;99.90
7000;DHT22;3540;53.242;10.408;2022-07-26T15:19:56;20.40;99.90
7000;DHT22;3540;53.242;10.408;2022-07-26T15:22:22;20.40;99.90
7000;DHT22;3540;53.242;10.408;2022-07-26T15:24:47;20.30;99.90
7000;DHT22;3540;53.242;10.408;2022-07-26T15:27:13;20.90;99.90
7000;DHT22;3540;53.242;10.408;2022-07-26T15:29:38;20.80;99.90
7000;DHT22;3540;53.242;10.408;2022-07-26T15:32:04;20.80;99.90
7000;DHT22;3540;53.242;10.408;2022-07-26T15:34:31;21.10;99.90
7000;DHT22;3540;53.242;10.408;2022-07-26T15:36:57;21.20;99.90
7000;DHT22;3540;53.242;10.408;2022-07-26T15:39:23;21.30;99.90
7000;DHT22;3540;53.242;10.408;2022-07-26T15:41:48;21.50;99.90
7000;DHT22;3540;53.242;10.408;2022-07-26T15:44:16;21.30;99.90
7000;DHT22;3540;53.242;10.408;2022-07-26T15:46:42;20.90;99.90
7000;DHT22;3540;53.242;10.408;2022-07-26T15:49:10;20.70;99.90
7000;DHT22;3540;53.242;10.408;2022-07-26T15:51:37;21.00;99.90
7000;DHT22;3540;53.242;10.408;2022-07-26T15:54:03;21.20;99.90
7000;DHT22;3540;53.242;10.408;2022-07-26T15:56:29;21.60;99.90
7000;DHT22;3540;53.242;10.408;2022-07-26T15:58:54;22.30;99.90
7000;DHT22;3540;53.242;10.408;2022-07-26T16:01:20;22.50;99.90
7000;DHT22;3540;53.242;10.408;2022-07-26T16:03:46;22.30;99.90
7000;DHT22;3540;53.242;10.408;2022-07-26T16:06:11;22.30;99.90
7000;DHT22;3540;53.242;10.408;2022-07-26T16:08:37;22.90;99.90